createdAt,value
2019-05-13T00:00:38.734Z,1.30
2019-05-13T00:03:06.033Z,2.47
2019-05-13T00:05:34.124Z,3.77
2019-05-13T00:08:03.548Z,2.53
2019-05-13T00:10:49.933Z,3.80
2019-05-13T00:13:17.027Z,2.73
2019-05-13T00:15:44.618Z,3.10
2019-05-13T00:18:14.161Z,2.90
2019-05-13T00:21:00.632Z,1.63
2019-05-13T00:26:27.729Z,2.37
2019-05-13T00:28:55.382Z,1.43
2019-05-13T00:31:24.152Z,1.77
2019-05-13T00:33:53.268Z,2.47
2019-05-13T00:36:40.023Z,2.50
2019-05-13T00:39:07.687Z,2.80
2019-05-13T00:41:34.816Z,1.80
2019-05-13T00:44:03.868Z,3.90
2019-05-13T00:46:33.828Z,3.07
2019-05-13T00:49:00.765Z,2.60
2019-05-13T00:51:28.122Z,1.17
2019-05-13T00:53:55.332Z,1.63
2019-05-13T00:56:23.756Z,2.37
2019-05-13T00:58:51.183Z,1.80
2019-05-13T01:01:18.487Z,2.80
2019-05-13T01:03:45.750Z,3.53
2019-05-13T01:06:13.740Z,3.13
2019-05-13T01:08:40.892Z,1.40
2019-05-13T01:11:08.157Z,1.50
2019-05-13T01:13:35.731Z,2.00
2019-05-13T01:16:03.744Z,1.23
2019-05-13T01:18:33.811Z,2.43
2019-05-13T01:21:00.481Z,1.90
2019-05-13T01:23:27.730Z,1.20
2019-05-13T01:25:55.024Z,2.87
2019-05-13T01:28:23.958Z,3.80
2019-05-13T01:30:51.293Z,1.60
2019-05-13T01:33:18.328Z,3.03
2019-05-13T01:35:46.180Z,2.80
2019-05-13T01:38:13.587Z,2.57
2019-05-13T01:40:40.802Z,2.80
2019-05-13T01:43:07.961Z,2.33
2019-05-13T01:45:35.617Z,3.47
2019-05-13T01:48:07.310Z,3.07
2019-05-13T01:50:33.716Z,2.57
2019-05-13T01:53:03.850Z,4.70
2019-05-13T01:55:30.649Z,3.43
2019-05-13T01:57:57.696Z,3.23
2019-05-13T02:00:25.001Z,3.37
2019-05-13T02:02:54.497Z,2.07
2019-05-13T02:05:21.331Z,2.20
2019-05-13T02:07:59.702Z,2.30
2019-05-13T02:10:36.089Z,3.23
2019-05-13T02:13:04.157Z,4.33
2019-05-13T02:15:33.658Z,2.40
2019-05-13T02:18:00.223Z,4.87
2019-05-13T02:20:27.690Z,3.77
2019-05-13T02:22:54.725Z,3.10
2019-05-13T02:25:43.572Z,3.67
2019-05-13T02:28:10.940Z,2.63
2019-05-13T02:30:38.541Z,3.17
2019-05-13T02:33:05.883Z,4.37
2019-05-13T02:35:33.034Z,3.60
2019-05-13T02:38:18.357Z,3.77
2019-05-13T02:40:32.448Z,3.57
2019-05-13T02:42:58.955Z,4.30
2019-05-13T02:45:45.728Z,3.37
2019-05-13T02:48:13.492Z,4.30
2019-05-13T02:50:43.869Z,4.47
2019-05-13T02:53:13.377Z,3.57
2019-05-13T02:55:38.735Z,4.97
2019-05-13T02:58:06.091Z,3.57
2019-05-13T03:00:53.834Z,4.57
2019-05-13T03:03:23.135Z,4.03
2019-05-13T03:05:52.793Z,3.93
2019-05-13T03:08:38.705Z,5.03
2019-05-13T03:10:52.692Z,3.97
2019-05-13T03:13:18.517Z,4.53
2019-05-13T03:16:14.193Z,4.13
2019-05-13T03:18:43.568Z,5.90
2019-05-13T03:21:12.835Z,4.10
2019-05-13T03:23:43.594Z,4.60
2019-05-13T03:26:08.827Z,6.90
2019-05-13T03:28:35.927Z,5.03
2019-05-13T03:31:06.799Z,5.07
2019-05-13T03:33:36.746Z,4.57
2019-05-13T03:36:06.895Z,4.80
2019-05-13T03:38:32.905Z,6.93
2019-05-13T03:41:03.080Z,4.80
2019-05-13T03:43:32.451Z,6.17
2019-05-13T03:46:03.077Z,6.20
2019-05-13T03:48:29.257Z,5.57
2019-05-13T03:50:56.327Z,8.10
2019-05-13T03:53:23.660Z,5.10
2019-05-13T03:55:53.890Z,6.37
2019-05-13T03:58:23.638Z,7.63
2019-05-13T04:00:51.883Z,5.77
2019-05-13T04:03:18.654Z,6.67
2019-05-13T04:05:45.900Z,6.47
2019-05-13T04:08:13.679Z,6.60
2019-05-13T04:10:42.132Z,7.77
2019-05-13T04:13:12.428Z,10.53
2019-05-13T04:15:42.548Z,7.00
2019-05-13T04:18:08.554Z,8.80
2019-05-13T04:20:55.745Z,9.03
2019-05-13T04:23:23.571Z,6.90
2019-05-13T04:26:14.224Z,6.73
2019-05-13T04:28:42.928Z,7.30
2019-05-13T04:31:08.830Z,9.37
2019-05-13T04:33:55.409Z,8.93
2019-05-13T04:36:23.539Z,8.10
2019-05-13T04:38:52.836Z,7.87
2019-05-13T04:41:22.921Z,7.60
2019-05-13T04:43:49.533Z,6.23
2019-05-13T04:46:16.760Z,7.10
2019-05-13T04:48:44.675Z,6.23
2019-05-13T04:51:13.854Z,7.73
2019-05-13T04:53:42.479Z,6.93
2019-05-13T04:56:13.247Z,8.20
2019-05-13T04:58:42.498Z,6.57
2019-05-13T05:02:06.060Z,7.97
2019-05-13T05:04:44.185Z,8.27
2019-05-13T05:07:22.619Z,6.47
2019-05-13T05:10:29.311Z,6.43
2019-05-13T05:13:12.840Z,7.50
2019-05-13T05:16:28.056Z,8.23
2019-05-13T05:19:47.555Z,7.60
2019-05-13T05:22:39.412Z,5.50
2019-05-13T05:25:33.776Z,7.73
2019-05-13T05:28:38.508Z,6.27
2019-05-13T05:31:27.822Z,6.63
2019-05-13T05:34:41.729Z,6.33
2019-05-13T05:37:48.145Z,9.27
2019-05-13T05:40:35.020Z,10.00
2019-05-13T05:43:03.894Z,6.87
2019-05-13T05:45:36.173Z,5.80
2019-05-13T05:48:04.771Z,5.70
2019-05-13T05:50:32.675Z,5.43
2019-05-13T05:53:03.688Z,8.03
2019-05-13T05:55:31.822Z,5.73
2019-05-13T05:58:01.458Z,5.67
2019-05-13T06:00:28.789Z,4.77
2019-05-13T06:02:56.175Z,5.10
2019-05-13T06:05:23.404Z,5.97
2019-05-13T06:07:51.501Z,6.83
2019-05-13T06:10:18.754Z,5.53
2019-05-13T06:12:45.892Z,6.40
2019-05-13T06:15:12.973Z,5.80
2019-05-13T06:18:02.149Z,5.43
2019-05-13T06:20:31.713Z,6.57
2019-05-13T06:23:02.048Z,5.63
2019-05-13T06:25:28.872Z,7.00
2019-05-13T06:27:56.545Z,7.03
2019-05-13T06:30:43.552Z,6.83
2019-05-13T06:33:23.935Z,6.60
2019-05-13T06:38:51.290Z,8.40
2019-05-13T06:41:18.928Z,5.10
2019-05-13T06:43:46.182Z,4.23
2019-05-13T06:46:13.807Z,5.70
2019-05-13T06:48:41.581Z,6.97
2019-05-13T06:51:08.686Z,5.00
2019-05-13T06:53:36.391Z,9.47
2019-05-13T06:56:03.885Z,7.83
2019-05-13T06:58:32.526Z,7.23
2019-05-13T07:01:03.170Z,7.23
2019-05-13T07:03:32.061Z,8.10
2019-05-13T07:05:58.624Z,7.33
2019-05-13T07:08:25.800Z,6.87
2019-05-13T07:10:53.160Z,4.63
2019-05-13T07:13:21.803Z,4.23
2019-05-13T07:15:51.946Z,4.50
2019-05-13T07:18:18.907Z,2.47
2019-05-13T07:20:46.425Z,6.13
2019-05-13T07:23:13.832Z,6.10
2019-05-13T07:25:41.965Z,6.07
2019-05-13T07:28:12.444Z,9.03
2019-05-13T07:30:42.447Z,5.97
2019-05-13T07:33:12.289Z,4.77
2019-05-13T07:35:58.818Z,8.50
2019-05-13T07:38:26.505Z,6.40
2019-05-13T07:41:01.558Z,3.30
2019-05-13T07:43:31.836Z,6.37
2019-05-13T07:45:58.140Z,11.30
2019-05-13T07:48:45.000Z,7.50
2019-05-13T07:51:12.470Z,5.87
2019-05-13T07:53:42.405Z,7.50
2019-05-13T07:56:28.589Z,6.53
2019-05-13T07:58:55.741Z,6.73
2019-05-13T08:01:42.491Z,5.70
2019-05-13T08:04:22.011Z,6.13
2019-05-13T08:06:41.429Z,5.83
2019-05-13T08:09:12.571Z,8.93
2019-05-13T08:11:56.244Z,10.40
2019-05-13T08:14:07.725Z,7.07
2019-05-13T08:16:35.075Z,7.87
2019-05-13T08:19:02.199Z,6.03
2019-05-13T08:21:29.100Z,4.87
2019-05-13T08:23:56.684Z,9.60
2019-05-13T08:26:24.343Z,5.60
2019-05-13T08:29:01.293Z,8.93
2019-05-13T08:31:21.661Z,6.33
2019-05-13T08:34:11.538Z,4.53
2019-05-13T08:36:39.561Z,5.57
2019-05-13T08:39:08.156Z,6.90
2019-05-13T08:41:35.284Z,7.80
2019-05-13T08:44:02.898Z,4.47
2019-05-13T08:46:32.289Z,3.37
2019-05-13T08:49:03.473Z,3.30
2019-05-13T08:51:31.348Z,7.07
2019-05-13T08:53:57.845Z,4.47
2019-05-13T08:56:25.620Z,3.33
2019-05-13T08:58:52.779Z,8.27
2019-05-13T09:01:22.525Z,5.33
2019-05-13T09:03:51.991Z,6.67
2019-05-13T09:06:18.021Z,5.47
2019-05-13T09:08:45.473Z,4.03
2019-05-13T09:11:12.656Z,4.57
2019-05-13T09:14:02.169Z,3.97
2019-05-13T09:16:28.900Z,7.57
2019-05-13T09:18:57.205Z,5.40
2019-05-13T09:21:24.385Z,3.90
2019-05-13T09:23:51.659Z,4.93
2019-05-13T09:26:18.813Z,3.80
2019-05-13T09:28:46.434Z,3.17
2019-05-13T09:31:13.813Z,4.17
2019-05-13T09:34:01.565Z,4.33
2019-05-13T09:36:28.777Z,2.73
2019-05-13T09:38:56.037Z,4.70
2019-05-13T09:41:23.181Z,5.37
2019-05-13T09:43:51.366Z,6.83
2019-05-13T09:46:18.844Z,4.97
2019-05-13T09:49:16.143Z,4.20
2019-05-13T09:51:35.207Z,3.57
2019-05-13T09:54:02.802Z,3.27
2019-05-13T09:56:31.959Z,2.17
2019-05-13T09:59:01.539Z,3.07
2019-05-13T10:01:28.149Z,3.43
2019-05-13T10:03:58.206Z,4.00
2019-05-13T10:06:24.340Z,5.80
2019-05-13T10:09:12.562Z,4.20
2019-05-13T10:14:25.005Z,2.80
2019-05-13T10:16:51.924Z,5.47
2019-05-13T10:19:21.274Z,5.57
2019-05-13T10:21:48.460Z,4.83
2019-05-13T10:24:17.359Z,3.70
2019-05-13T10:26:44.413Z,4.17
2019-05-13T10:29:12.257Z,4.93
2019-05-13T10:31:41.813Z,3.33
2019-05-13T10:34:08.436Z,3.57
2019-05-13T10:36:36.021Z,6.50
2019-05-13T10:39:04.788Z,5.07
2019-05-13T10:41:33.322Z,5.70
2019-05-13T10:44:02.983Z,5.03
2019-05-13T10:46:32.087Z,3.17
2019-05-13T10:48:58.639Z,7.60
2019-05-13T10:51:25.658Z,4.17
2019-05-13T10:53:56.383Z,4.10
2019-05-13T10:56:21.864Z,3.97
2019-05-13T10:58:49.105Z,3.47
2019-05-13T11:01:16.124Z,1.83
2019-05-13T11:03:43.292Z,4.90
2019-05-13T11:06:11.676Z,4.80
2019-05-13T11:08:41.978Z,5.77
2019-05-13T11:11:08.295Z,7.30
2019-05-13T11:13:52.263Z,5.47
2019-05-13T11:16:04.779Z,3.70
2019-05-13T11:18:32.332Z,4.23
2019-05-13T11:21:02.038Z,3.53
2019-05-13T11:23:32.294Z,5.93
2019-05-13T11:25:58.943Z,4.33
2019-05-13T11:28:26.785Z,5.23
2019-05-13T11:31:13.743Z,2.43
2019-05-13T11:33:54.337Z,4.30
2019-05-13T11:36:23.253Z,3.53
2019-05-13T11:39:13.029Z,2.57
2019-05-13T11:41:39.066Z,4.47
2019-05-13T11:44:14.151Z,3.03
2019-05-13T11:46:35.980Z,2.57
2019-05-13T11:49:23.216Z,1.70
2019-05-13T11:51:51.943Z,3.37
2019-05-13T11:54:41.803Z,5.83
2019-05-13T12:00:06.836Z,3.97
2019-05-13T12:02:34.275Z,4.53
2019-05-13T12:05:03.745Z,4.53
2019-05-13T12:07:32.930Z,4.13
2019-05-13T12:10:01.988Z,4.80
2019-05-13T12:12:33.658Z,2.30
2019-05-13T12:17:27.350Z,3.10
2019-05-13T12:19:54.601Z,4.50
2019-05-13T12:22:22.907Z,4.40
2019-05-13T12:24:51.579Z,6.80
2019-05-13T12:27:19.383Z,4.30
2019-05-13T12:29:47.040Z,3.83
2019-05-13T12:32:14.287Z,5.83
2019-05-13T12:34:45.626Z,3.10
2019-05-13T12:37:12.210Z,5.50
2019-05-13T12:39:42.997Z,6.77
2019-05-13T12:42:28.088Z,5.30
2019-05-13T12:45:08.158Z,7.00
2019-05-13T12:47:24.822Z,4.63
2019-05-13T12:49:52.208Z,4.17
2019-05-13T12:52:39.037Z,3.23
2019-05-13T12:55:06.120Z,3.20
2019-05-13T12:57:33.787Z,8.50
2019-05-13T13:00:02.297Z,3.80
2019-05-13T13:02:32.601Z,2.77
2019-05-13T13:05:14.149Z,3.67
2019-05-13T13:07:28.855Z,4.80
2019-05-13T13:09:56.017Z,3.20
2019-05-13T13:12:33.731Z,4.70
2019-05-13T13:14:54.570Z,5.30
2019-05-13T13:17:24.102Z,3.60
2019-05-13T13:19:54.779Z,4.37
2019-05-13T13:22:24.580Z,3.00
2019-05-13T13:24:55.740Z,5.60
2019-05-13T13:27:25.924Z,3.77
2019-05-13T13:29:47.856Z,4.63
2019-05-13T13:32:15.002Z,3.73
2019-05-13T13:34:44.009Z,3.83
2019-05-13T13:37:11.461Z,2.77
2019-05-13T13:39:42.248Z,4.93
2019-05-13T13:42:08.570Z,5.03
2019-05-13T13:44:55.788Z,5.47
2019-05-13T13:47:24.207Z,3.97
2019-05-13T13:50:16.693Z,4.13
2019-05-13T13:52:45.592Z,2.63
2019-05-13T13:55:16.078Z,2.30
2019-05-13T13:58:02.323Z,4.30
2019-05-13T14:00:44.806Z,4.53
2019-05-13T14:02:59.047Z,3.60
2019-05-13T14:05:26.366Z,6.90
2019-05-13T14:06:32.042Z,3.93
2019-05-13T14:07:53.717Z,3.60
2019-05-13T14:10:22.007Z,5.20
2019-05-13T14:12:52.268Z,4.17
2019-05-13T14:15:38.230Z,3.53
2019-05-13T14:18:07.631Z,6.67
2019-05-13T14:20:34.964Z,5.80
2019-05-13T14:23:02.971Z,3.83
2019-05-13T14:25:32.475Z,2.83
2019-05-13T14:27:59.929Z,2.80
2019-05-13T14:30:27.695Z,4.50
2019-05-13T14:32:55.178Z,5.27
2019-05-13T14:35:22.192Z,4.10
2019-05-13T14:37:51.674Z,3.30
2019-05-13T14:40:18.815Z,4.27
2019-05-13T14:42:45.998Z,4.03
2019-05-13T14:45:13.251Z,3.93
2019-05-13T14:47:40.415Z,4.17
2019-05-13T14:50:08.062Z,3.50
2019-05-13T14:52:35.210Z,3.53
2019-05-13T14:55:02.588Z,3.73
2019-05-13T14:57:32.064Z,3.90
2019-05-13T14:59:59.107Z,2.63
2019-05-13T15:02:26.379Z,4.87
2019-05-13T15:04:54.201Z,5.60
2019-05-13T15:07:21.933Z,5.13
2019-05-13T15:09:51.408Z,4.33
2019-05-13T15:12:21.446Z,4.47
2019-05-13T15:14:48.005Z,4.30
2019-05-13T15:17:36.833Z,5.37
2019-05-13T15:20:05.200Z,3.17
2019-05-13T15:22:32.551Z,3.90
2019-05-13T15:25:02.531Z,4.07
2019-05-13T15:27:31.692Z,4.37
2019-05-13T15:30:14.486Z,4.00
2019-05-13T15:32:32.501Z,4.73
2019-05-13T15:35:20.088Z,4.40
2019-05-13T15:37:47.176Z,3.23
2019-05-13T15:40:14.357Z,4.43
2019-05-13T15:42:41.728Z,3.63
2019-05-13T15:45:12.315Z,4.77
2019-05-13T15:47:38.942Z,2.97
2019-05-13T15:50:06.608Z,4.40
2019-05-13T15:52:34.457Z,4.47
2019-05-13T15:55:01.609Z,4.60
2019-05-13T15:57:28.978Z,3.83
2019-05-13T16:00:17.281Z,5.23
2019-05-13T16:02:45.188Z,3.40
2019-05-13T16:05:12.579Z,5.37
2019-05-13T16:08:01.422Z,3.53
2019-05-13T16:10:29.028Z,4.50
2019-05-13T16:12:56.584Z,4.27
2019-05-13T16:15:23.845Z,3.23
2019-05-13T16:18:11.691Z,4.80
2019-05-13T16:20:42.614Z,2.43
2019-05-13T16:23:08.932Z,5.50
2019-05-13T16:25:37.107Z,2.93
2019-05-13T16:28:04.500Z,4.27
2019-05-13T16:30:33.712Z,5.20
2019-05-13T16:33:02.811Z,2.20
2019-05-13T16:35:51.742Z,3.90
2019-05-13T16:38:40.970Z,3.53
2019-05-13T16:41:11.971Z,3.87
2019-05-13T16:43:38.886Z,5.07
2019-05-13T16:46:07.332Z,3.87
2019-05-13T16:48:35.245Z,6.40
2019-05-13T16:51:02.397Z,5.23
2019-05-13T16:53:49.324Z,2.23
2019-05-13T16:56:26.690Z,5.20
2019-05-13T16:58:46.112Z,2.73
2019-05-13T17:01:34.883Z,4.47
2019-05-13T17:04:02.601Z,4.30
2019-05-13T17:06:31.992Z,4.33
2019-05-13T17:09:01.837Z,4.97
2019-05-13T17:11:32.170Z,4.10
2019-05-13T17:14:01.855Z,4.73
2019-05-13T17:16:29.153Z,4.73
2019-05-13T17:18:56.600Z,4.67
2019-05-13T17:21:23.974Z,4.90
2019-05-13T17:23:52.348Z,4.77
2019-05-13T17:26:21.967Z,4.10
2019-05-13T17:28:49.324Z,4.50
2019-05-13T17:31:16.976Z,2.53
2019-05-13T17:33:44.329Z,3.00
2019-05-13T17:36:12.291Z,4.97
2019-05-13T17:38:40.600Z,2.77
2019-05-13T17:41:08.488Z,2.33
2019-05-13T17:43:35.760Z,2.67
2019-05-13T17:46:03.148Z,3.47
2019-05-13T17:48:33.130Z,3.10
2019-05-13T17:51:01.333Z,4.10
2019-05-13T17:53:29.145Z,2.70
2019-05-13T17:55:56.845Z,3.97
2019-05-13T17:58:24.046Z,4.33
2019-05-13T18:00:52.040Z,4.10
2019-05-13T18:03:19.927Z,2.17
2019-05-13T18:05:48.875Z,6.50
2019-05-13T18:08:16.120Z,2.47
2019-05-13T18:11:02.782Z,3.53
2019-05-13T18:13:30.001Z,4.93
2019-05-13T18:15:57.752Z,4.17
2019-05-13T18:18:39.170Z,1.70
2019-05-13T18:20:54.708Z,1.93
2019-05-13T18:23:22.492Z,2.57
2019-05-13T18:25:51.482Z,5.03
2019-05-13T18:28:30.304Z,4.50
2019-05-13T18:30:48.080Z,2.83
2019-05-13T18:33:21.181Z,1.73
2019-05-13T18:35:48.508Z,3.40
2019-05-13T18:38:16.253Z,2.83
2019-05-13T18:40:43.685Z,3.20
2019-05-13T18:43:11.099Z,4.40
2019-05-13T18:45:38.491Z,5.83
2019-05-13T18:48:25.126Z,4.73
2019-05-13T18:50:52.588Z,5.07
2019-05-13T18:53:21.494Z,4.40
2019-05-13T18:55:48.977Z,3.47
2019-05-13T18:58:16.384Z,3.77
2019-05-13T19:00:43.711Z,4.23
2019-05-13T19:03:12.457Z,5.07
2019-05-13T19:05:42.061Z,3.43
2019-05-13T19:08:32.102Z,3.67
2019-05-13T19:11:01.205Z,4.60
2019-05-13T19:13:32.371Z,3.73
2019-05-13T19:16:02.395Z,5.23
2019-05-13T19:18:49.240Z,4.60
2019-05-13T19:21:16.609Z,3.30
2019-05-13T19:23:43.993Z,2.43
2019-05-13T19:26:31.027Z,4.93
2019-05-13T19:28:58.289Z,2.57
2019-05-13T19:31:25.636Z,5.00
2019-05-13T19:33:53.340Z,5.17
2019-05-13T19:36:21.153Z,3.53
2019-05-13T19:38:48.430Z,4.37
2019-05-13T19:41:18.991Z,7.03
2019-05-13T19:43:45.049Z,3.13
2019-05-13T19:46:12.207Z,2.47
2019-05-13T19:48:41.552Z,3.83
2019-05-13T19:51:08.717Z,4.33
2019-05-13T19:53:36.022Z,3.33
2019-05-13T19:56:03.466Z,3.57
2019-05-13T19:58:32.301Z,4.47
2019-05-13T20:00:59.671Z,2.73
2019-05-13T20:03:26.885Z,5.67
2019-05-13T20:05:54.463Z,2.43
2019-05-13T20:08:22.376Z,2.47
2019-05-13T20:11:11.581Z,3.30
2019-05-13T20:13:39.037Z,1.67
2019-05-13T20:16:07.622Z,1.73
2019-05-13T20:18:34.860Z,3.20
2019-05-13T20:21:02.151Z,3.97
2019-05-13T20:23:31.833Z,2.73
2019-05-13T20:25:58.618Z,1.57
2019-05-13T20:28:25.975Z,2.63
2019-05-13T20:30:53.067Z,2.37
2019-05-13T20:33:22.161Z,1.40
2019-05-13T20:35:49.432Z,2.43
2019-05-13T20:38:16.485Z,2.40
2019-05-13T20:40:43.863Z,2.80
2019-05-13T20:43:11.954Z,3.17
2019-05-13T20:45:39.298Z,3.83
2019-05-13T20:48:06.377Z,1.63
2019-05-13T20:50:33.608Z,1.97
2019-05-13T20:53:01.293Z,1.70
2019-05-13T20:55:28.936Z,3.87
2019-05-13T20:58:16.456Z,2.00
2019-05-13T21:00:43.823Z,2.17
2019-05-13T21:03:11.733Z,3.57
2019-05-13T21:05:41.328Z,3.67
2019-05-13T21:08:08.020Z,3.90
2019-05-13T21:10:35.156Z,4.57
2019-05-13T21:13:02.443Z,2.13
2019-05-13T21:15:51.686Z,2.67
2019-05-13T21:18:18.790Z,2.47
2019-05-13T21:20:45.789Z,4.43
2019-05-13T21:23:13.083Z,3.50
2019-05-13T21:25:41.809Z,5.50
2019-05-13T21:28:11.407Z,3.83
2019-05-13T21:30:45.047Z,5.20
2019-05-13T21:33:12.564Z,2.70
2019-05-13T21:35:41.725Z,4.83
2019-05-13T21:38:11.303Z,2.97
2019-05-13T21:40:38.543Z,3.93
2019-05-13T21:43:05.661Z,3.57
2019-05-13T21:45:33.375Z,3.80
2019-05-13T21:48:01.699Z,3.07
2019-05-13T21:50:34.249Z,2.70
2019-05-13T21:52:58.373Z,3.50
2019-05-13T21:55:25.528Z,4.07
2019-05-13T21:58:05.962Z,4.10
2019-05-13T22:00:43.711Z,3.47
2019-05-13T22:03:11.566Z,2.97
2019-05-13T22:05:39.379Z,5.77
2019-05-13T22:08:26.061Z,4.07
2019-05-13T22:10:53.688Z,3.73
2019-05-13T22:13:20.932Z,5.27
2019-05-13T22:15:47.990Z,4.20
2019-05-13T22:18:15.143Z,4.60
2019-05-13T22:20:50.012Z,4.60
2019-05-13T22:23:12.036Z,5.60
2019-05-13T22:25:43.451Z,4.30
2019-05-13T22:28:08.204Z,3.50
2019-05-13T22:30:55.317Z,3.37
2019-05-13T22:33:23.283Z,3.77
2019-05-13T22:35:52.283Z,4.03
2019-05-13T22:38:21.388Z,3.63
2019-05-13T22:40:49.054Z,4.93
2019-05-13T22:43:35.725Z,4.10
2019-05-13T22:46:03.340Z,5.73
2019-05-13T22:48:31.797Z,3.70
2019-05-13T22:51:01.383Z,2.80
2019-05-13T22:53:28.668Z,3.27
2019-05-13T22:56:15.580Z,3.17
2019-05-13T22:59:02.570Z,2.50
2019-05-13T23:01:32.223Z,4.57
2019-05-13T23:03:58.972Z,4.60
2019-05-13T23:06:26.185Z,5.70
2019-05-13T23:08:53.537Z,5.03
2019-05-13T23:11:21.885Z,3.67
2019-05-13T23:13:51.319Z,5.60
2019-05-13T23:16:18.508Z,3.47
2019-05-13T23:18:45.561Z,3.27
2019-05-13T23:21:13.450Z,3.20
2019-05-13T23:23:40.853Z,6.03
2019-05-13T23:26:08.092Z,3.03
2019-05-13T23:28:35.271Z,4.30
2019-05-13T23:31:21.903Z,4.07
2019-05-13T23:33:48.964Z,3.60
2019-05-13T23:36:35.488Z,4.47
2019-05-13T23:39:04.919Z,5.90
2019-05-13T23:41:32.028Z,3.43
2019-05-13T23:44:24.795Z,4.53
2019-05-13T23:46:47.970Z,4.63
2019-05-13T23:49:15.644Z,4.23
2019-05-13T23:51:43.250Z,6.50
2019-05-13T23:54:31.622Z,3.10
2019-05-13T23:57:12.474Z,3.50
2019-05-13T23:59:41.677Z,4.30
